createdAt,value
2022-08-16T00:01:21.517Z,100123.84
2022-08-16T00:03:51.386Z,100131.72
2022-08-16T00:06:29.304Z,100122.94
2022-08-16T00:08:55.747Z,100125.34
2022-08-16T00:11:22.542Z,100121.31
2022-08-16T00:13:54.040Z,100123.31
2022-08-16T00:17:01.027Z,100120.97
2022-08-16T00:19:23.132Z,100115.50
2022-08-16T00:21:53.327Z,100116.31
2022-08-16T00:24:32.263Z,100112.78
2022-08-16T00:27:01.052Z,100117.91
2022-08-16T00:29:29.589Z,100123.84
2022-08-16T00:32:05.295Z,100112.72
2022-08-16T00:34:43.446Z,100115.44
2022-08-16T00:37:17.287Z,100115.56
2022-08-16T00:39:57.217Z,100114.19
2022-08-16T00:42:30.605Z,100125.19
2022-08-16T00:45:09.695Z,100119.88
2022-08-16T00:47:49.312Z,100121.81
2022-08-16T00:50:36.235Z,100115.94
2022-08-16T00:53:05.070Z,100115.13
2022-08-16T00:55:37.774Z,100119.34
2022-08-16T00:58:13.027Z,100117.09
2022-08-16T01:00:53.933Z,100121.00
2022-08-16T01:03:30.003Z,100127.06
2022-08-16T01:05:59.267Z,100126.31
2022-08-16T01:08:36.120Z,100134.53
2022-08-16T01:11:05.260Z,100137.94
2022-08-16T01:13:35.479Z,100134.38
2022-08-16T01:16:19.976Z,100136.66
2022-08-16T01:19:07.703Z,100139.22
2022-08-16T01:22:49.928Z,100134.63
2022-08-16T01:25:06.110Z,100128.31
2022-08-16T01:27:39.056Z,100139.06
2022-08-16T01:30:19.578Z,100148.63
2022-08-16T01:32:59.599Z,100149.41
2022-08-16T01:35:53.394Z,100152.31
2022-08-16T01:38:25.556Z,100150.38
2022-08-16T01:40:57.083Z,100153.97
2022-08-16T01:43:25.153Z,100155.91
2022-08-16T01:45:58.369Z,100156.91
2022-08-16T01:48:28.729Z,100164.38
2022-08-16T01:51:09.451Z,100153.34
2022-08-16T01:53:43.445Z,100165.84
2022-08-16T01:56:32.147Z,100160.47
2022-08-16T01:59:01.874Z,100164.31
2022-08-16T02:01:31.949Z,100171.25
2022-08-16T02:04:10.283Z,100171.25
2022-08-16T02:06:46.004Z,100164.84
2022-08-16T02:09:22.770Z,100171.16
2022-08-16T02:11:56.378Z,100177.38
2022-08-16T02:14:27.408Z,100173.03
2022-08-16T02:16:58.055Z,100175.16
2022-08-16T02:19:59.758Z,100181.75
2022-08-16T02:22:33.735Z,100181.66
2022-08-16T02:25:11.899Z,100186.81
2022-08-16T02:27:43.059Z,100185.22
2022-08-16T02:30:36.520Z,100185.22
2022-08-16T02:33:04.342Z,100194.22
2022-08-16T02:35:32.696Z,100195.44
2022-08-16T02:38:08.694Z,100185.59
2022-08-16T02:40:36.480Z,100192.97
2022-08-16T02:43:04.529Z,100197.50
2022-08-16T02:45:32.293Z,100196.72
2022-08-16T02:48:01.818Z,100196.72
2022-08-16T02:50:53.545Z,100190.28
2022-08-16T02:53:29.865Z,100186.13
2022-08-16T02:55:57.293Z,100186.56
2022-08-16T02:58:25.204Z,100175.50
2022-08-16T03:00:55.979Z,100171.88
2022-08-16T03:03:24.927Z,100179.50
2022-08-16T03:05:53.226Z,100179.84
2022-08-16T03:08:51.316Z,100177.66
2022-08-16T03:11:16.434Z,100170.09
2022-08-16T03:13:56.526Z,100171.94
2022-08-16T03:16:37.661Z,100173.19
2022-08-16T03:19:08.267Z,100175.41
2022-08-16T03:21:38.299Z,100172.81
2022-08-16T03:24:29.060Z,100178.66
2022-08-16T03:26:58.912Z,100177.88
2022-08-16T03:29:30.035Z,100178.31
2022-08-16T03:31:59.666Z,100180.72
2022-08-16T03:34:29.787Z,100183.84
2022-08-16T03:36:56.772Z,100173.16
2022-08-16T03:39:23.802Z,100180.53
2022-08-16T03:41:59.261Z,100178.84
2022-08-16T03:44:43.894Z,100173.56
2022-08-16T03:47:18.932Z,100180.47
2022-08-16T03:49:51.282Z,100176.03
2022-08-16T03:52:23.431Z,100175.00
2022-08-16T03:54:58.219Z,100171.00
2022-08-16T03:57:32.053Z,100178.91
2022-08-16T04:00:20.648Z,100177.66
2022-08-16T04:03:09.456Z,100185.84
2022-08-16T04:05:46.939Z,100187.38
2022-08-16T04:08:23.954Z,100197.91
2022-08-16T04:10:58.213Z,100190.91
2022-08-16T04:13:59.062Z,100199.19
2022-08-16T04:16:26.782Z,100203.53
2022-08-16T04:19:01.411Z,100200.78
2022-08-16T04:21:32.668Z,100189.41
2022-08-16T04:24:00.814Z,100196.97
2022-08-16T04:26:30.809Z,100191.19
2022-08-16T04:29:17.115Z,100191.31
2022-08-16T04:31:56.385Z,100185.19
2022-08-16T04:34:30.015Z,100200.13
2022-08-16T04:37:01.453Z,100203.88
2022-08-16T04:39:45.678Z,100202.00
2022-08-16T04:42:26.220Z,100198.56
2022-08-16T04:44:58.366Z,100195.44
2022-08-16T04:47:35.518Z,100201.50
2022-08-16T04:50:09.782Z,100200.69
2022-08-16T04:52:38.144Z,100207.72
2022-08-16T04:55:09.000Z,100205.31
2022-08-16T04:57:38.036Z,100202.09
2022-08-16T05:00:31.750Z,100203.38
2022-08-16T05:03:07.443Z,100205.03
2022-08-16T05:05:45.335Z,100205.59
2022-08-16T05:08:28.985Z,100215.69
2022-08-16T05:11:15.803Z,100217.00
2022-08-16T05:13:47.818Z,100215.88
2022-08-16T05:16:25.620Z,100215.06
2022-08-16T05:18:59.524Z,100225.81
2022-08-16T05:21:38.195Z,100222.69
2022-08-16T05:24:08.953Z,100230.38
2022-08-16T05:26:40.720Z,100236.91
2022-08-16T05:29:07.567Z,100232.72
2022-08-16T05:31:44.288Z,100243.50
2022-08-16T05:34:20.157Z,100243.50
2022-08-16T05:36:51.354Z,100245.09
2022-08-16T05:39:20.577Z,100247.06
2022-08-16T05:41:49.013Z,100250.47
2022-08-16T05:44:23.982Z,100247.63
2022-08-16T05:46:57.277Z,100250.66
2022-08-16T05:49:38.332Z,100256.00
2022-08-16T05:52:11.392Z,100259.38
2022-08-16T05:54:47.083Z,100265.25
2022-08-16T05:57:20.678Z,100263.66
2022-08-16T05:59:59.751Z,100267.03
2022-08-16T06:02:39.209Z,100267.78
2022-08-16T06:05:14.676Z,100271.44
2022-08-16T06:07:43.934Z,100267.50
2022-08-16T06:10:32.976Z,100272.59
2022-08-16T06:13:02.457Z,100265.00
2022-08-16T06:15:30.711Z,100268.56
2022-08-16T06:17:59.271Z,100269.84
2022-08-16T06:20:35.309Z,100272.25
2022-08-16T06:23:16.920Z,100271.16
2022-08-16T06:26:08.440Z,100280.25
2022-08-16T06:28:42.996Z,100273.03
2022-08-16T06:31:16.947Z,100268.75
2022-08-16T06:33:51.692Z,100275.09
2022-08-16T06:36:21.761Z,100277.50
2022-08-16T06:39:08.822Z,100277.91
2022-08-16T06:41:57.553Z,100279.09
2022-08-16T06:44:42.772Z,100280.22
2022-08-16T06:47:53.412Z,100282.50
2022-08-16T06:50:28.746Z,100286.31
2022-08-16T06:53:00.582Z,100286.44
2022-08-16T06:55:34.142Z,100281.72
2022-08-16T06:58:08.354Z,100290.72
2022-08-16T07:00:37.792Z,100291.78
2022-08-16T07:03:28.006Z,100292.25
2022-08-16T07:05:57.023Z,100288.69
2022-08-16T07:08:28.939Z,100295.91
2022-08-16T07:10:56.814Z,100293.13
2022-08-16T07:14:00.287Z,100293.09
2022-08-16T07:16:16.683Z,100294.91
2022-08-16T07:18:58.900Z,100298.53
2022-08-16T07:21:26.856Z,100299.06
2022-08-16T07:23:58.052Z,100304.28
2022-08-16T07:26:34.105Z,100299.63
2022-08-16T07:29:02.677Z,100304.69
2022-08-16T07:31:37.864Z,100316.16
2022-08-16T07:34:10.200Z,100306.19
2022-08-16T07:36:38.472Z,100314.19
2022-08-16T07:39:06.254Z,100319.78
2022-08-16T07:41:36.178Z,100312.84
2022-08-16T07:44:16.365Z,100315.66
2022-08-16T07:46:45.040Z,100308.69
2022-08-16T07:49:19.011Z,100306.78
2022-08-16T07:51:46.786Z,100306.91
2022-08-16T07:54:21.222Z,100316.19
2022-08-16T07:56:59.186Z,100312.06
2022-08-16T07:59:26.080Z,100313.31
2022-08-16T08:02:12.248Z,100316.69
2022-08-16T08:04:41.088Z,100317.13
2022-08-16T08:07:08.959Z,100318.38
2022-08-16T08:09:36.332Z,100318.91
2022-08-16T08:12:31.915Z,100311.47
2022-08-16T08:14:58.155Z,100308.09
2022-08-16T08:17:25.303Z,100313.69
2022-08-16T08:20:20.795Z,100320.69
2022-08-16T08:23:01.148Z,100308.81
2022-08-16T08:25:54.324Z,100318.84
2022-08-16T08:28:23.184Z,100319.28
2022-08-16T08:31:01.486Z,100319.41
2022-08-16T08:33:32.464Z,100317.88
2022-08-16T08:36:05.140Z,100317.72
2022-08-16T08:38:45.883Z,100322.72
2022-08-16T08:41:19.730Z,100320.38
2022-08-16T08:43:54.930Z,100315.28
2022-08-16T08:46:23.502Z,100324.56
2022-08-16T08:48:59.157Z,100326.97
2022-08-16T08:51:35.825Z,100332.47
2022-08-16T08:54:06.529Z,100331.75
2022-08-16T08:56:37.256Z,100338.19
2022-08-16T08:59:16.463Z,100337.81
2022-08-16T09:01:56.480Z,100332.59
2022-08-16T09:04:25.283Z,100353.34
2022-08-16T09:06:53.888Z,100343.81
2022-08-16T09:09:22.706Z,100341.03
2022-08-16T09:12:04.178Z,100339.81
2022-08-16T09:14:49.398Z,100337.94
2022-08-16T09:17:38.261Z,100329.63
2022-08-16T09:20:08.279Z,100329.19
2022-08-16T09:22:35.221Z,100321.63
2022-08-16T09:25:12.609Z,100326.41
2022-08-16T09:27:56.528Z,100338.34
2022-08-16T09:30:34.632Z,100337.94
2022-08-16T09:33:24.252Z,100319.22
2022-08-16T09:35:52.912Z,100322.75
2022-08-16T09:38:31.472Z,100332.28
2022-08-16T09:41:00.784Z,100332.72
2022-08-16T09:44:00.619Z,100334.72
2022-08-16T09:46:45.352Z,100334.66
2022-08-16T09:49:04.405Z,100325.50
2022-08-16T09:51:36.821Z,100327.44
2022-08-16T09:54:05.709Z,100330.53
2022-08-16T09:56:34.886Z,100327.03
2022-08-16T09:59:07.272Z,100322.88
2022-08-16T10:01:36.615Z,100326.09
2022-08-16T10:04:06.996Z,100317.22
2022-08-16T10:06:52.724Z,100324.81
2022-08-16T10:09:20.247Z,100325.03
2022-08-16T10:12:11.770Z,100331.59
2022-08-16T10:14:46.787Z,100327.19
2022-08-16T10:17:14.661Z,100328.09
2022-08-16T10:19:41.431Z,100333.19
2022-08-16T10:22:12.690Z,100334.44
2022-08-16T10:24:40.435Z,100322.94
2022-08-16T10:27:27.295Z,100324.16
2022-08-16T10:30:25.840Z,100329.53
2022-08-16T10:32:55.183Z,100328.91
2022-08-16T10:35:22.030Z,100335.63
2022-08-16T10:37:52.206Z,100329.16
2022-08-16T10:40:30.140Z,100331.63
2022-08-16T10:43:02.063Z,100332.94
2022-08-16T10:45:36.667Z,100333.03
2022-08-16T10:48:27.713Z,100327.91
2022-08-16T10:50:53.854Z,100333.75
2022-08-16T10:53:22.274Z,100328.81
2022-08-16T10:55:48.875Z,100337.19
2022-08-16T10:58:33.958Z,100333.47
2022-08-16T11:01:24.929Z,100333.72
2022-08-16T11:03:49.071Z,100330.19
2022-08-16T11:06:26.861Z,100328.00
2022-08-16T11:14:33.815Z,100333.88
2022-08-16T11:17:11.052Z,100327.06
2022-08-16T11:22:47.079Z,100332.09
2022-08-16T11:28:09.586Z,100340.13
2022-08-16T11:30:39.342Z,100337.06
2022-08-16T11:33:07.452Z,100342.75
2022-08-16T11:38:47.665Z,100346.59
2022-08-16T11:41:09.849Z,100349.81
2022-08-16T11:43:38.333Z,100346.78
2022-08-16T11:46:42.922Z,100354.19
2022-08-16T11:48:55.590Z,100345.59
2022-08-16T11:51:22.549Z,100350.22
2022-08-16T11:53:49.434Z,100352.84
2022-08-16T11:56:16.350Z,100355.81
2022-08-16T11:58:56.958Z,100354.09
2022-08-16T12:01:29.894Z,100355.50
2022-08-16T12:04:13.350Z,100346.13
2022-08-16T12:06:40.099Z,100354.09
2022-08-16T12:09:07.939Z,100352.44
2022-08-16T12:11:36.694Z,100352.94
2022-08-16T12:14:05.482Z,100339.41
2022-08-16T12:16:34.136Z,100341.59
2022-08-16T12:19:05.423Z,100347.66
2022-08-16T12:21:35.967Z,100342.88
2022-08-16T12:24:20.378Z,100356.09
2022-08-16T12:26:47.268Z,100351.78
2022-08-16T12:29:16.954Z,100358.19
2022-08-16T12:32:00.669Z,100352.47
2022-08-16T12:34:30.234Z,100352.34
2022-08-16T12:36:56.893Z,100350.06
2022-08-16T12:39:24.001Z,100346.22
2022-08-16T12:41:57.628Z,100345.97
2022-08-16T12:44:26.345Z,100341.56
2022-08-16T12:47:18.310Z,100345.56
2022-08-16T12:49:45.302Z,100350.28
2022-08-16T12:52:33.056Z,100349.66
2022-08-16T12:55:00.225Z,100347.31
2022-08-16T12:57:36.825Z,100341.56
2022-08-16T13:00:28.708Z,100345.19
2022-08-16T13:03:03.933Z,100337.59
2022-08-16T13:05:42.880Z,100329.97
2022-08-16T13:08:21.292Z,100334.06
2022-08-16T13:10:51.729Z,100339.88
2022-08-16T13:13:25.510Z,100344.50
2022-08-16T13:16:00.863Z,100344.69
2022-08-16T13:18:34.461Z,100337.78
2022-08-16T13:21:05.092Z,100339.34
2022-08-16T13:23:32.304Z,100345.06
2022-08-16T13:25:59.466Z,100339.91
2022-08-16T13:28:26.355Z,100342.75
2022-08-16T13:30:56.146Z,100349.59
2022-08-16T13:33:29.753Z,100345.19
2022-08-16T13:35:59.274Z,100341.50
2022-08-16T13:38:35.181Z,100343.13
2022-08-16T13:41:05.790Z,100337.47
2022-08-16T13:43:35.923Z,100339.47
2022-08-16T13:46:04.767Z,100332.50
2022-08-16T13:48:43.230Z,100336.44
2022-08-16T13:51:16.662Z,100334.75
2022-08-16T13:53:59.935Z,100334.31
2022-08-16T13:56:37.906Z,100325.28
2022-08-16T13:59:19.942Z,100328.59
2022-08-16T14:01:55.475Z,100321.84
2022-08-16T14:04:26.809Z,100323.94
2022-08-16T14:06:57.951Z,100319.59
2022-08-16T14:09:27.100Z,100333.97
2022-08-16T14:11:54.369Z,100329.56
2022-08-16T14:14:28.494Z,100331.31
2022-08-16T14:16:58.212Z,100331.06
2022-08-16T14:19:26.410Z,100323.00
2022-08-16T14:22:13.571Z,100324.16
2022-08-16T14:24:46.720Z,100323.94
2022-08-16T14:27:15.476Z,100331.31
2022-08-16T14:29:42.447Z,100329.84
2022-08-16T14:32:13.137Z,100328.50
2022-08-16T14:34:52.605Z,100321.56
2022-08-16T14:37:22.811Z,100316.00
2022-08-16T14:39:49.812Z,100321.88
2022-08-16T14:42:24.368Z,100317.53
2022-08-16T14:45:00.483Z,100325.69
2022-08-16T14:47:34.174Z,100315.63
2022-08-16T14:50:01.834Z,100311.28
2022-08-16T14:52:53.942Z,100310.72
2022-08-16T14:55:17.150Z,100315.25
2022-08-16T14:57:43.633Z,100316.22
2022-08-16T15:00:13.434Z,100316.59
2022-08-16T15:02:42.406Z,100313.19
2022-08-16T15:05:11.645Z,100316.00
2022-08-16T15:07:40.276Z,100315.50
2022-08-16T15:10:08.399Z,100321.34
2022-08-16T15:12:49.592Z,100324.59
2022-08-16T15:15:20.437Z,100320.00
2022-08-16T15:17:53.893Z,100327.19
2022-08-16T15:20:22.930Z,100321.97
2022-08-16T15:22:53.936Z,100316.59
2022-08-16T15:25:34.006Z,100319.56
2022-08-16T15:28:04.652Z,100327.53
2022-08-16T15:30:57.524Z,100326.19
2022-08-16T15:33:24.575Z,100331.25
2022-08-16T15:35:55.202Z,100327.72
2022-08-16T15:38:56.901Z,100328.16
2022-08-16T15:41:09.587Z,100326.28
2022-08-16T15:43:40.457Z,100328.84
2022-08-16T15:46:34.973Z,100336.16
2022-08-16T15:49:11.354Z,100332.00
2022-08-16T15:51:39.413Z,100333.88
2022-08-16T15:54:29.008Z,100334.31
2022-08-16T15:56:55.048Z,100331.28
2022-08-16T15:59:24.238Z,100331.28
2022-08-16T16:01:57.089Z,100333.88
2022-08-16T16:04:28.452Z,100343.31
2022-08-16T16:06:56.605Z,100327.03
2022-08-16T16:09:36.539Z,100337.06
2022-08-16T16:12:27.470Z,100332.56
2022-08-16T16:14:52.852Z,100335.00
2022-08-16T16:17:19.316Z,100333.78
2022-08-16T16:19:49.706Z,100336.47
2022-08-16T16:22:21.358Z,100329.69
2022-08-16T16:24:49.189Z,100337.78
2022-08-16T16:27:21.778Z,100344.25
2022-08-16T16:29:50.858Z,100349.59
2022-08-16T16:32:34.082Z,100339.34
2022-08-16T16:35:02.405Z,100344.22
2022-08-16T16:37:31.020Z,100345.84
2022-08-16T16:39:58.215Z,100340.97
2022-08-16T16:42:29.531Z,100347.66
2022-08-16T16:45:01.597Z,100343.84
2022-08-16T16:47:30.024Z,100344.94
2022-08-16T16:50:09.145Z,100339.75
2022-08-16T16:52:43.856Z,100338.03
2022-08-16T16:55:15.185Z,100344.47
2022-08-16T16:58:03.311Z,100350.06
2022-08-16T17:00:37.559Z,100345.25
2022-08-16T17:03:06.338Z,100345.19
2022-08-16T17:05:43.699Z,100351.97
2022-08-16T17:08:23.970Z,100349.59
2022-08-16T17:10:52.486Z,100360.97
2022-08-16T17:13:20.966Z,100355.41
2022-08-16T17:15:54.233Z,100358.72
2022-08-16T17:19:16.627Z,100361.94
2022-08-16T17:21:09.283Z,100368.84
2022-08-16T17:23:58.954Z,100367.00
2022-08-16T17:26:29.804Z,100369.50
2022-08-16T17:29:02.311Z,100372.06
2022-08-16T17:31:40.873Z,100373.75
2022-08-16T17:34:29.415Z,100371.47
2022-08-16T17:36:59.404Z,100384.34
2022-08-16T17:39:29.586Z,100375.19
2022-08-16T17:42:13.286Z,100374.81
2022-08-16T17:44:39.856Z,100374.88
2022-08-16T17:47:06.355Z,100380.88
2022-08-16T17:49:32.798Z,100385.69
2022-08-16T17:51:59.379Z,100377.72
2022-08-16T17:54:30.722Z,100382.97
2022-08-16T17:57:00.847Z,100386.94
2022-08-16T17:59:28.145Z,100394.53
2022-08-16T18:01:55.686Z,100392.97
2022-08-16T18:04:49.464Z,100393.38
2022-08-16T18:07:10.295Z,100401.75
2022-08-16T18:09:36.976Z,100398.16
2022-08-16T18:12:44.854Z,100399.41
2022-08-16T18:15:13.323Z,100389.44
2022-08-16T18:17:40.229Z,100395.41
2022-08-16T18:20:28.886Z,100397.38
2022-08-16T18:23:03.526Z,100397.34
2022-08-16T18:25:30.224Z,100400.16
2022-08-16T18:27:56.669Z,100402.56
2022-08-16T18:30:23.122Z,100408.50
2022-08-16T18:32:50.417Z,100406.50
2022-08-16T18:35:18.813Z,100414.84
2022-08-16T18:37:45.959Z,100411.59
2022-08-16T18:40:14.961Z,100416.31
2022-08-16T18:42:52.888Z,100416.72
2022-08-16T18:45:19.320Z,100428.25
2022-08-16T18:47:46.204Z,100423.81
2022-08-16T18:50:12.970Z,100425.38
2022-08-16T18:52:50.776Z,100428.91
2022-08-16T18:55:17.446Z,100431.28
2022-08-16T18:57:44.874Z,100432.41
2022-08-16T19:00:14.894Z,100435.13
2022-08-16T19:02:58.827Z,100438.66
2022-08-16T19:05:27.310Z,100448.91
2022-08-16T19:07:53.776Z,100454.84
2022-08-16T19:10:20.686Z,100455.59
2022-08-16T19:12:47.733Z,100459.13
2022-08-16T19:15:21.825Z,100457.50
2022-08-16T19:17:48.572Z,100460.66
2022-08-16T19:20:18.281Z,100461.84
2022-08-16T19:23:05.823Z,100466.53
2022-08-16T19:25:47.883Z,100466.38
2022-08-16T19:28:49.099Z,100462.81
2022-08-16T19:31:25.937Z,100464.00
2022-08-16T19:33:56.255Z,100469.97
2022-08-16T19:36:31.980Z,100475.03
2022-08-16T19:39:05.182Z,100481.34
2022-08-16T19:41:43.791Z,100489.22
2022-08-16T19:44:10.867Z,100486.69
2022-08-16T19:46:38.317Z,100492.16
2022-08-16T19:49:05.538Z,100503.56
2022-08-16T19:51:32.411Z,100496.75
2022-08-16T19:53:58.894Z,100501.47
2022-08-16T19:56:26.555Z,100498.34
2022-08-16T19:59:18.174Z,100504.63
2022-08-16T20:01:42.509Z,100507.25
2022-08-16T20:04:13.135Z,100503.56
2022-08-16T20:06:41.175Z,100497.09
2022-08-16T20:09:07.627Z,100501.75
2022-08-16T20:11:35.367Z,100501.28
2022-08-16T20:14:02.902Z,100500.72
2022-08-16T20:16:29.650Z,100494.28
2022-08-16T20:18:56.122Z,100504.09
2022-08-16T20:21:22.823Z,100511.63
2022-08-16T20:23:49.315Z,100508.81
2022-08-16T20:26:16.303Z,100515.06
2022-08-16T20:28:52.402Z,100513.81
2022-08-16T20:31:24.741Z,100519.66
2022-08-16T20:33:51.978Z,100518.84
2022-08-16T20:36:19.344Z,100519.97
2022-08-16T20:38:47.988Z,100520.28
2022-08-16T20:41:16.453Z,100518.66
2022-08-16T20:43:43.507Z,100521.81
2022-08-16T20:46:12.466Z,100531.31
2022-08-16T20:48:38.885Z,100528.84
2022-08-16T20:51:06.784Z,100524.03
2022-08-16T20:53:33.947Z,100530.31
2022-08-16T20:56:00.544Z,100542.66
2022-08-16T20:58:27.179Z,100536.00
2022-08-16T21:00:53.700Z,100536.81
2022-08-16T21:03:20.534Z,100544.78
2022-08-16T21:05:47.515Z,100544.69
2022-08-16T21:08:49.977Z,100547.75
2022-08-16T21:11:08.671Z,100550.13
2022-08-16T21:13:39.261Z,100548.13
2022-08-16T21:16:08.775Z,100553.63
2022-08-16T21:18:35.230Z,100559.78
2022-08-16T21:21:01.705Z,100556.88
2022-08-16T21:23:28.212Z,100554.72
2022-08-16T21:25:58.994Z,100556.59
2022-08-16T21:28:41.133Z,100556.16
2022-08-16T21:31:15.063Z,100564.97
2022-08-16T21:33:43.091Z,100566.97
2022-08-16T21:36:11.089Z,100569.66
2022-08-16T21:38:38.920Z,100565.63
2022-08-16T21:41:07.171Z,100561.66
2022-08-16T21:43:34.621Z,100559.97
2022-08-16T21:46:01.947Z,100562.22
2022-08-16T21:48:34.735Z,100552.94
2022-08-16T21:51:15.089Z,100563.16
2022-08-16T21:53:43.712Z,100561.09
2022-08-16T21:56:16.650Z,100559.78
2022-08-16T21:58:45.535Z,100565.53
2022-08-16T22:01:12.416Z,100559.75
2022-08-16T22:03:39.236Z,100563.44
2022-08-16T22:06:12.053Z,100567.69
2022-08-16T22:08:50.227Z,100567.88
2022-08-16T22:11:22.138Z,100566.19
2022-08-16T22:13:57.341Z,100567.66
2022-08-16T22:16:28.049Z,100564.03
2022-08-16T22:18:54.787Z,100573.50
2022-08-16T22:21:21.857Z,100576.09
2022-08-16T22:23:55.211Z,100575.19
2022-08-16T22:26:31.696Z,100584.56
2022-08-16T22:29:04.735Z,100585.94
2022-08-16T22:31:32.193Z,100584.22
2022-08-16T22:33:59.280Z,100580.09
2022-08-16T22:36:28.131Z,100578.13
2022-08-16T22:39:00.516Z,100584.28
2022-08-16T22:41:28.610Z,100581.00
2022-08-16T22:43:55.941Z,100588.50
2022-08-16T22:46:23.205Z,100588.50
2022-08-16T22:48:50.840Z,100585.25
2022-08-16T22:51:20.486Z,100581.53
2022-08-16T22:53:47.716Z,100589.66
2022-08-16T22:56:16.888Z,100586.63
2022-08-16T22:58:43.940Z,100589.47
2022-08-16T23:01:13.057Z,100585.44
2022-08-16T23:03:39.710Z,100585.88
2022-08-16T23:06:07.434Z,100582.75
2022-08-16T23:08:39.135Z,100583.84
2022-08-16T23:11:08.919Z,100587.41
2022-08-16T23:13:35.431Z,100586.63
2022-08-16T23:16:11.268Z,100578.59
2022-08-16T23:18:39.946Z,100585.16
2022-08-16T23:21:10.130Z,100579.91
2022-08-16T23:23:37.745Z,100581.19
2022-08-16T23:26:46.192Z,100587.91
2022-08-16T23:28:51.902Z,100584.03
2022-08-16T23:31:19.369Z,100573.50
2022-08-16T23:33:46.340Z,100573.06
2022-08-16T23:36:13.655Z,100574.94
2022-08-16T23:38:40.270Z,100573.00
2022-08-16T23:41:11.428Z,100562.41
2022-08-16T23:43:43.451Z,100564.97
2022-08-16T23:46:16.984Z,100576.91
2022-08-16T23:49:56.846Z,100565.06
2022-08-16T23:51:31.253Z,100570.22
2022-08-16T23:53:57.789Z,100565.16
2022-08-16T23:56:25.559Z,100567.81
2022-08-16T23:59:01.833Z,100556.19
